M0OAB-1 Weather Reports


time (UTC)temp
C
wind
direction
speed
KPH
gust
KPH
rain 1hr
cm
rain 24hr
cm
rain mn
cm
humidity
%
barometer
mb
20260506094803 11 343 12.9 17.7 0.00 0.00 0.00 64 998.6
20260506094604 11 348 11.3 17.7 0.00 0.00 0.00 64 998.6
20260506094404 11 346 11.3 17.7 0.00 0.00 0.00 65 998.8
20260506094204 11 340 11.3 17.7 0.00 0.00 0.00 65 998.7
20260506093804 11 343 11.3 16.1 0.00 0.00 0.00 66 998.6
20260506093604 11 340 12.9 16.1 0.00 0.00 0.00 65 998.6
20260506093403 11 339 11.3 16.1 0.00 0.00 0.00 65 998.7
20260506093204 11 341 11.3 16.1 0.00 0.00 0.00 66 998.6
20260506093004 11 340 9.7 12.9 0.00 0.00 0.00 66 998.7
20260506092804 11 333 9.7 12.9 0.00 0.00 0.00 67 998.6
20260506092603 11 331 9.7 12.9 0.00 0.00 0.00 67 998.6
20260506092404 11 334 9.7 12.9 0.00 0.00 0.00 69 998.9
20260506092004 10 331 11.3 17.7 0.00 0.00 0.00 69 998.6
20260506091804 10 330 12.9 19.3 0.00 0.00 0.00 68 998.6
20260506091604 10 329 14.5 19.3 0.00 0.00 0.00 68 998.7
20260506091003 10 333 12.9 19.3 0.00 0.00 0.00 67 998.7
20260506090804 10 337 12.9 17.7 0.00 0.00 0.00 67 998.8
20260506090604 11 345 11.3 17.7 0.00 0.00 0.00 67 998.7
20260506090404 11 352 11.3 17.7 0.00 0.00 0.00 67 998.7
20260506090203 11 348 9.7 12.9 0.00 0.00 0.00 69 998.7
20260506090004 11 340 9.7 12.9 0.00 0.00 0.00 69 998.6
20260506085804 11 343 9.7 12.9 0.00 0.00 0.00 69 998.7
20260506085604 10 334 11.3 14.5 0.00 0.00 0.00 68 998.8
20260506085403 10 331 12.9 17.7 0.00 0.00 0.00 67 998.7
20260506085004 11 340 12.9 17.7 0.00 0.00 0.00 66 998.7
20260506084803 11 337 12.9 17.7 0.00 0.00 0.00 65 998.6
20260506084604 11 343 12.9 17.7 0.00 0.00 0.00 66 998.6
20260506084404 11 350 12.9 17.7 0.00 0.00 0.00 67 998.4
20260506084003 11 340 12.9 17.7 0.00 0.00 0.00 66 998.5
20260506083804 11 347 12.9 17.7 0.00 0.00 0.00 67 998.6
20260506083604 11 349 12.9 17.7 0.00 0.00 0.00 70 998.5
20260506083403 11 339 11.3 17.7 0.00 0.00 0.00 70 998.6
20260506083204 11 348 12.9 20.9 0.00 0.00 0.00 70 998.6
20260506083004 10 351 14.5 20.9 0.00 0.00 0.00 70 998.5
20260506082804 10 343 14.5 20.9 0.00 0.00 0.00 70 998.6
20260506082603 10 341 14.5 20.9 0.00 0.00 0.00 70 998.6
20260506082404 10 344 14.5 20.9 0.00 0.00 0.00 70 998.5
20260506082204 10 336 14.5 20.9 0.00 0.00 0.00 70 998.6
20260506082004 10 335 12.9 19.3 0.00 0.00 0.00 70 998.6
20260506081803 10 341 12.9 19.3 0.00 0.00 0.00 70 998.6
20260506081603 10 335 14.5 19.3 0.00 0.00 0.00 70 998.6
20260506081404 10 334 14.5 19.3 0.00 0.00 0.00 69 998.6
20260506081204 10 335 14.5 17.7 0.00 0.00 0.00 70 998.5
20260506081003 10 333 14.5 17.7 0.00 0.00 0.00 69 998.7
20260506080804 10 329 16.1 19.3 0.00 0.00 0.00 69 998.6
20260506080604 10 337 16.1 19.3 0.00 0.00 0.00 70 998.5
20260506080404 10 335 16.1 19.3 0.00 0.00 0.00 70 998.5
20260506080203 10 335 16.1 19.3 0.00 0.00 0.00 70 998.5
20260506073404 10 345 12.9 17.7 0.00 0.00 0.00 71 998.5
20260506073204 10 339 11.3 17.7 0.00 0.00 0.00 71 998.8
20260506073004 10 343 9.7 14.5 0.00 0.00 0.00 72 998.5
20260506072804 10 330 11.3 17.7 0.00 0.00 0.00 73 998.6
20260506072604 10 312 11.3 17.7 0.00 0.00 0.00 73 998.6
20260506072404 10 321 12.9 17.7 0.00 0.00 0.00 74 998.5
20260506072203 9 324 12.9 17.7 0.00 0.00 0.00 74 998.4
20260506072004 8 325 12.9 17.7 0.00 0.00 0.00 74 998.5
20260506071604 8 347 12.9 19.3 0.00 0.00 0.00 75 998.5
20260506071404 8 343 12.9 19.3 0.00 0.00 0.00 75 998.5
20260506071203 8 343 12.9 19.3 0.00 0.00 0.00 74 998.6
20260506070804 8 341 14.5 19.3 0.00 0.00 0.00 74 998.5
20260506070604 8 344 14.5 19.3 0.00 0.00 0.00 75 998.5
20260506070403 8 340 14.5 19.3 0.00 0.00 0.00 74 998.5
20260506070204 8 342 16.1 20.9 0.00 0.00 0.00 75 998.3
20260506062404 7 342 11.3 17.7 0.00 0.00 0.00 79 998.3
20260506062204 7 343 11.3 17.7 0.00 0.00 0.00 79 998.3
20260506062003 7 353 9.7 12.9 0.00 0.00 0.00 79 998.3
20260506061604 7 339 9.7 12.9 0.00 0.00 0.00 79 998.3
20260506061403 7 349 9.7 12.9 0.00 0.00 0.00 79 998.3
20260506061004 7 352 8.0 12.9 0.00 0.00 0.00 79 998.2
20260506060604 7 355 8.0 11.3 0.00 0.00 0.00 80 998.2
20260506060403 7 348 8.0 11.3 0.00 0.00 0.00 80 998.2
20260506060203 7 352 9.7 16.1 0.00 0.00 0.00 80 998.2
20260506051403 7 340 8.0 11.3 0.00 0.00 0.00 84 998.0
20260506051004 7 335 6.4 9.7 0.00 0.00 0.00 83 997.9
20260506050804 7 345 8.0 9.7 0.00 0.00 0.00 83 998.0
20260506050603 7 354 8.0 9.7 0.00 0.00 0.00 83 998.0
20260506050404 7 355 8.0 9.7 0.00 0.00 0.00 83 998.1
20260506045003 7 321 8.0 12.9 0.00 0.00 0.00 82 998.0
20260506044804 7 327 8.0 12.9 0.00 0.00 0.00 77 998.0
20260506044404 7 329 6.4 9.7 0.00 0.00 0.00 77 998.0
20260506044204 7 336 6.4 12.9 0.00 0.00 0.00 77 997.9
20260506044004 7 339 8.0 12.9 0.00 0.00 0.00 77 998.0
20260506043804 7 326 8.0 12.9 0.00 0.00 0.00 77 998.0
20260506043603 7 331 9.7 12.9 0.00 0.00 0.00 77 998.0
20260506043403 7 338 9.7 12.9 0.00 0.00 0.00 77 998.0
20260506043204 7 337 9.7 12.9 0.00 0.00 0.00 77 998.0
20260506043004 7 343 9.7 12.9 0.00 0.00 0.00 77 998.0
20260506042803 7 348 9.7 12.9 0.00 0.00 0.00 77 998.0
20260506042603 7 347 8.0 12.9 0.00 0.00 0.00 77 998.0
20260506042404 7 347 8.0 12.9 0.00 0.00 0.00 77 997.9
20260506042204 7 345 9.7 16.1 0.00 0.00 0.00 76 997.9
20260506042003 7 338 9.7 16.1 0.00 0.00 0.00 76 998.0
20260506041803 7 340 11.3 17.7 0.00 0.00 0.00 76 998.0
20260506041604 7 344 11.3 17.7 0.00 0.00 0.00 76 998.2
20260506041404 7 341 11.3 17.7 0.00 0.00 0.00 76 998.2
20260506041203 7 342 9.7 17.7 0.00 0.00 0.00 76 998.2
20260506041003 7 349 9.7 17.7 0.00 0.00 0.00 76 998.1
20260506040804 8 345 8.0 11.3 0.00 0.00 0.00 76 998.2
20260506040604 8 341 8.0 9.7 0.00 0.00 0.00 76 997.9
20260506040403 8 347 8.0 12.9 0.00 0.00 0.00 76 997.9
20260506040203 8 346 9.7 12.9 0.00 0.00 0.00 76 997.9
20260506040004 8 346 9.7 12.9 0.00 0.00 0.00 76 998.0
20260506035804 8 345 9.7 12.9 0.00 0.00 0.00 76 998.1
20260506035603 8 348 11.3 12.9 0.00 0.00 0.00 76 998.0
20260506035403 8 339 11.3 14.5 0.00 0.00 0.00 76 998.2
20260506035204 8 342 11.3 14.5 0.00 0.00 0.00 76 998.2
20260506035004 8 335 9.7 14.5 0.00 0.00 0.00 76 998.1
20260506034803 8 341 9.7 14.5 0.00 0.00 0.00 76 997.9
20260506034404 8 345 8.0 14.5 0.00 0.00 0.00 76 998.0
20260506034204 8 341 8.0 11.3 0.00 0.00 0.00 77 998.0
20260506034004 8 342 8.0 11.3 0.00 0.00 0.00 77 998.1
20260506033603 8 342 9.7 12.9 0.00 0.00 0.00 76 998.0
20260506033404 8 341 9.7 12.9 0.00 0.00 0.00 76 998.1
20260506033204 8 336 9.7 12.9 0.00 0.00 0.00 76 998.0
20260506033004 8 336 8.0 12.9 0.00 0.00 0.00 76 998.2
20260506032603 8 336 8.0 11.3 0.00 0.00 0.00 76 998.0
20260506032404 8 336 8.0 11.3 0.00 0.00 0.00 76 998.0
20260506032204 8 342 6.4 11.3 0.00 0.00 0.00 76 998.0
20260506032004 8 345 6.4 11.3 0.00 0.00 0.00 76 998.0
20260506031803 8 342 6.4 6.4 0.00 0.00 0.00 76 998.0
20260506031603 8 343 6.4 8.0 0.00 0.00 0.00 76 998.1
20260506031403 8 341 6.4 8.0 0.00 0.00 0.00 76 998.1
20260506031204 8 338 6.4 8.0 0.00 0.00 0.00 75 998.2
20260506031004 8 343 6.4 8.0 0.00 0.00 0.00 75 998.1
20260506030404 8 331 6.4 8.0 0.00 0.00 0.00 75 998.1
20260506030004 8 337 8.0 12.9 0.00 0.00 0.00 75 998.2
20260506025803 8 340 8.0 12.9 0.00 0.00 0.00 75 998.3
20260506025604 8 339 9.7 12.9 0.00 0.00 0.00 75 998.2
20260506025404 8 344 9.7 12.9 0.00 0.00 0.00 75 998.3
20260506025203 8 345 9.7 12.9 0.00 0.00 0.00 75 998.2
20260506025003 8 339 9.7 12.9 0.00 0.00 0.00 75 998.4
20260506024804 8 344 9.7 14.5 0.00 0.00 0.00 75 998.4
20260506024604 8 343 11.3 14.5 0.00 0.00 0.00 75 998.3
20260506024403 8 336 11.3 14.5 0.00 0.00 0.00 74 998.3
20260506024203 8 330 11.3 14.5 0.00 0.00 0.00 74 998.5
20260506024003 8 332 11.3 14.5 0.00 0.00 0.00 74 998.4
20260506023804 8 331 9.7 12.9 0.00 0.00 0.00 74 998.4
20260506023604 8 325 9.7 11.3 0.00 0.00 0.00 74 998.4
20260506023403 8 333 9.7 16.1 0.00 0.00 0.00 74 998.4
20260506023203 8 342 9.7 16.1 0.00 0.00 0.00 74 998.4
20260506023004 8 342 9.7 16.1 0.00 0.00 0.00 74 998.4
20260506022804 8 338 9.7 16.1 0.00 0.00 0.00 74 998.4
20260506022403 9 347 8.0 12.9 0.00 0.00 0.00 74 998.4
20260506022004 9 344 8.0 12.9 0.00 0.00 0.00 74 998.5
20260506021804 9 330 8.0 12.9 0.00 0.00 0.00 73 998.6
20260506021603 9 323 8.0 12.9 0.00 0.00 0.00 73 998.6
20260506021404 9 324 8.0 12.9 0.00 0.00 0.00 73 998.5
20260506021004 9 325 8.0 12.9 0.00 0.00 0.00 73 998.4
20260506020803 9 86 8.0 12.9 0.00 0.00 0.00 73 998.5
20260506020604 9 24 9.7 16.1 0.00 0.00 0.00 73 998.5
20260506020419 9 351 9.7 16.1 0.00 0.00 0.00 73 998.5
20260506020204 9 353 11.3 16.1 0.00 0.00 0.00 73 998.5
20260506020004 9 352 11.3 16.1 0.00 0.00 0.00 73 998.5
20260506015803 9 354 11.3 16.1 0.00 0.00 0.00 73 998.6
20260506015603 9 2 9.7 16.1 0.00 0.00 0.00 73 998.6
20260506015004 9 126 4.8 8.0 0.00 0.00 0.00 73 998.6
20260506014804 9 271 4.8 6.4 0.00 0.00 0.00 74 998.6
20260506014603 9 324 6.4 12.9 0.00 0.00 0.00 74 998.6
20260506014403 9 336 8.0 12.9 0.00 0.00 0.00 74 998.7
20260506014203 9 344 8.0 12.9 0.00 0.00 0.00 74 998.7
20260506013604 9 327 8.0 12.9 0.00 0.00 0.00 74 998.8
20260506013204 9 311 8.0 12.9 0.00 0.00 0.00 75 998.5
20260506012803 9 312 8.0 12.9 0.00 0.00 0.00 74 998.8
20260506012603 9 313 9.7 12.9 0.00 0.00 0.00 74 998.7
20260506012204 9 341 8.0 12.9 0.00 0.00 0.00 74 998.7
20260506011804 9 346 9.7 12.9 0.00 0.00 0.00 75 998.6
20260506011603 9 348 11.3 17.7 0.00 0.00 0.00 75 998.7
20260506011403 9 344 11.3 17.7 0.00 0.00 0.00 75 998.8
20260506011204 9 341 12.9 17.7 0.00 0.00 0.00 75 998.7
20260506010803 9 337 11.3 17.7 0.00 0.00 0.00 75 998.7
20260506010403 10 315 9.7 12.9 0.00 0.00 0.00 76 998.8
20260506010203 10 322 11.3 16.1 0.00 0.00 0.00 76 998.8
20260506010004 10 315 12.9 16.1 0.00 0.00 0.00 76 998.7
20260506005803 10 317 12.9 16.1 0.00 0.00 0.00 76 998.8
20260506005603 10 323 11.3 16.1 0.00 0.00 0.00 76 998.7
20260506005404 10 328 11.3 16.1 0.00 0.00 0.00 77 998.8
20260506005004 10 312 9.7 12.9 0.00 0.00 0.00 77 998.8
20260506004604 10 325 9.7 14.5 0.00 0.00 0.00 78 998.6
20260506004404 10 333 9.7 14.5 0.00 0.00 0.00 78 998.8
20260506004003 10 346 11.3 14.5 0.00 0.00 0.00 78 998.7
20260506003604 10 340 9.7 11.3 0.00 0.00 0.00 78 998.8
20260506003403 10 342 9.7 11.3 0.00 0.00 0.00 78 998.8
20260506003203 10 340 8.0 11.3 0.00 0.00 0.00 78 998.8
20260506003003 10 339 8.0 11.3 0.00 0.00 0.00 78 998.7
20260506002804 10 338 8.0 12.9 0.00 0.00 0.00 78 998.8
20260506002603 10 349 8.0 12.9 0.00 0.00 0.00 78 998.8
20260506002403 10 340 9.7 12.9 0.00 0.00 0.00 78 998.8
20260506002204 10 333 8.0 12.9 0.00 0.00 0.00 78 998.8
20260506002004 10 330 8.0 12.9 0.00 0.00 0.00 77 998.9
20260506001803 10 329 8.0 12.9 0.00 0.00 0.00 77 998.9
20260506001603 10 338 6.4 12.9 0.00 0.00 0.00 77 998.9
20260506001403 10 341 6.4 11.3 0.00 0.00 0.00 77 998.9
20260506001004 10 342 8.0 12.9 0.00 0.00 0.00 77 998.8
20260506000804 10 345 8.0 12.9 0.00 0.00 0.00 77 998.8
20260506000603 10 339 9.7 12.9 0.00 0.00 0.00 76 998.9
20260506000403 10 342 9.7 12.9 0.00 0.00 0.00 76 999.0
20260506000205 10 341 9.7 12.9 0.00 0.00 0.00 76 999.0
20260506000004 10 340 9.7 12.9 0.00 0.00 0.00 76 999.1
20260505235803 10 323 8.0 12.9 0.00 0.00 0.00 76 998.9
20260505235403 10 304 6.4 11.3 0.00 0.00 0.00 76 999.0
20260505235204 10 294 4.8 9.7 0.00 0.00 0.00 75 998.9
20260505235004 10 303 6.4 11.3 0.00 0.00 0.00 75 998.8
20260505234803 10 308 6.4 11.3 0.00 0.00 0.00 75 998.8
20260505234603 10 318 8.0 12.9 0.00 0.00 0.00 75 998.8
20260505234404 10 322 8.0 12.9 0.00 0.00 0.00 75 998.9
20260505234204 10 322 8.0 12.9 0.00 0.00 0.00 75 998.9
20260505234003 10 339 8.0 12.9 0.00 0.00 0.00 75 998.9
20260505233603 10 12 8.0 17.7 0.00 0.00 0.00 75 999.0
20260505233404 10 18 8.0 17.7 0.00 0.00 0.00 75 999.0
20260505233203 10 13 8.0 17.7 0.00 0.00 0.00 75 998.9
20260505233003 10 359 9.7 17.7 0.00 0.00 0.00 75 999.1
20260505232804 10 346 9.7 17.7 0.00 0.00 0.00 74 999.0
20260505232604 10 328 8.0 12.9 0.00 0.00 0.00 74 999.0
20260505232203 10 322 6.4 12.9 0.00 0.00 0.00 75 999.1
20260505232004 10 325 6.4 12.9 0.00 0.00 0.00 75 999.0
20260505231804 10 333 6.4 12.9 0.00 0.00 0.00 75 999.0
20260505231403 10 345 6.4 9.7 0.00 0.00 0.00 75 998.9
20260505231203 10 341 6.4 9.7 0.00 0.00 0.00 75 999.1
20260505230804 10 352 4.8 9.7 0.00 0.00 0.00 75 999.2
20260505230604 10 340 4.8 9.7 0.00 0.00 0.00 75 999.1
20260505230403 10 350 4.8 6.4 0.00 0.00 0.00 74 999.1
20260505230203 10 2 3.2 6.4 0.00 0.00 0.00 74 999.2
20260505230005 10 331 3.2 6.4 0.00 0.00 0.00 74 999.3
20260505225803 10 340 3.2 4.8 0.00 0.00 0.00 74 999.2
20260505225603 10 297 3.2 3.2 0.00 0.00 0.00 74 999.3
20260505225404 10 307 3.2 4.8 0.00 0.00 0.00 74 999.3
20260505225003 10 25 3.2 6.4 0.00 0.00 0.00 74 999.3
20260505224803 10 36 4.8 6.4 0.00 0.00 0.00 74 999.2
20260505224404 10 54 4.8 6.4 0.00 0.00 0.00 74 999.2
20260505224204 10 96 4.8 6.4 0.00 0.00 0.00 74 999.4
20260505224004 10 144 4.8 6.4 0.00 0.00 0.00 74 999.1
20260505223803 10 117 4.8 6.4 0.00 0.00 0.00 74 999.4
20260505223603 10 143 4.8 8.0 0.00 0.00 0.00 74 999.4
20260505223404 10 155 4.8 8.0 0.00 0.00 0.00 74 999.2
20260505222803 10 343 4.8 8.0 0.00 0.00 0.00 74 999.3
20260505222603 10 333 4.8 8.0 0.00 0.00 0.00 74 999.5
20260505222404 10 335 6.4 17.7 0.00 0.00 0.00 74 999.5
20260505222203 10 313 6.4 17.7 0.00 0.00 0.00 74 999.5
20260505222003 10 303 6.4 17.7 0.00 0.00 0.00 74 999.4
20260505221803 10 307 6.4 17.7 0.00 0.00 0.00 74 999.4
20260505221604 10 307 6.4 17.7 0.00 0.00 0.00 74 999.5
20260505221403 10 320 6.4 17.7 0.00 0.00 0.00 74 999.6
20260505221203 10 336 4.8 8.0 0.00 0.00 0.00 74 999.4
20260505221004 10 333 6.4 11.3 0.00 0.00 0.00 74 999.3
20260505220804 11 339 6.4 11.3 0.00 0.00 0.00 74 999.6
20260505220603 11 346 6.4 11.3 0.00 0.00 0.00 74 999.4
20260505220403 11 356 6.4 11.3 0.00 0.00 0.00 73 999.5
20260505220204 11 15 6.4 11.3 0.00 0.00 0.00 73 999.3
20260505220003 11 16 4.8 11.3 0.00 0.00 0.00 73 999.4
20260505215803 11 9 4.8 8.0 0.00 0.00 0.00 73 999.4
20260505215604 11 345 4.8 8.0 0.00 0.00 0.00 73 999.3
20260505215404 11 355 4.8 8.0 0.00 0.00 0.00 73 999.2
20260505215003 11 8 6.4 9.7 0.00 0.00 0.00 73 999.3
20260505214803 11 351 6.4 9.7 0.00 0.00 0.00 73 999.3
20260505214604 11 10 6.4 9.7 0.00 0.00 0.00 73 999.3
20260505214404 11 2 4.8 9.7 0.00 0.00 0.00 73 999.3
20260505214203 11 329 6.4 11.3 0.00 0.00 0.00 73 999.1
20260505214003 11 324 6.4 11.3 0.00 0.00 0.00 74 999.2
20260505213604 11 280 6.4 11.3 0.00 0.00 0.00 74 999.2
20260505213404 11 301 8.0 14.5 0.00 0.00 0.00 75 999.2
20260505213203 11 327 6.4 14.5 0.00 0.00 0.00 75 999.2
20260505213004 11 7 8.0 14.5 0.00 0.00 0.00 76 999.2
20260505212804 11 3 8.0 14.5 0.00 0.00 0.00 77 999.2
20260505212603 11 2 6.4 14.5 0.00 0.00 0.00 78 999.1
20260505212405 11 16 6.4 8.0 0.00 0.00 0.00 78 999.1
20260505212005 11 11 4.8 6.4 0.00 0.00 0.00 79 999.1
20260505211805 11 30 3.2 6.4 0.00 0.00 0.00 79 999.2
20260505211605 11 33 3.2 6.4 0.00 0.00 0.00 79 999.2
20260505211204 11 44 1.6 4.8 0.00 0.00 0.00 79 999.0
20260505211005 11 341 1.6 4.8 0.00 0.00 0.00 80 999.0
20260505210805 11 284 1.6 4.8 0.00 0.00 0.00 80 999.2
20260505210605 11 264 1.6 4.8 0.00 0.00 0.00 80 999.0
20260505210405 11 145 1.6 3.2 0.00 0.00 0.00 80 998.9
20260505210205 11 160 1.6 3.2 0.00 0.00 0.00 80 999.0
20260505210005 11 149 1.6 3.2 0.00 0.00 0.00 80 999.0
20260505205805 11 118 3.2 3.2 0.00 0.00 0.00 80 998.8
20260505205605 11 108 3.2 3.2 0.00 0.00 0.00 80 998.9
20260505205205 11 105 3.2 3.2 0.00 0.00 0.00 80 999.0
20260505205006 11 59 1.6 3.2 0.00 0.00 0.00 80 998.9
20260505204805 11 327 1.6 3.2 0.00 0.00 0.00 80 998.8
20260505204605 11 328 1.6 3.2 0.00 0.00 0.00 80 999.0
20260505204405 11 248 1.6 3.2 0.00 0.00 0.00 80 999.0
20260505204005 11 318 1.6 3.2 0.00 0.00 0.00 80 998.9
20260505203805 11 85 3.2 3.2 0.00 0.00 0.00 80 998.9
20260505203605 11 28 3.2 3.2 0.00 0.00 0.00 80 998.9
20260505203205 11 53 3.2 4.8 0.00 0.00 0.00 79 998.9
20260505203005 11 51 3.2 4.8 0.00 0.00 0.00 79 999.0
20260505202805 11 56 3.2 4.8 0.00 0.00 0.00 79 998.9
20260505202605 11 70 3.2 6.4 0.00 0.00 0.00 78 998.9
20260505202405 11 77 3.2 6.4 0.00 0.00 0.00 78 998.8
20260505201805 11 81 4.8 6.4 0.00 0.00 0.00 77 998.8
20260505201405 12 82 3.2 4.8 0.00 0.00 0.00 75 998.8
20260505201005 12 88 3.2 4.8 0.00 0.00 0.00 74 998.7
20260505200605 12 45 4.8 6.4 0.00 0.00 0.00 73 998.9
20260505200405 12 65 4.8 6.4 0.00 0.00 0.00 72 998.8
20260505200205 12 355 4.8 6.4 0.00 0.00 0.00 70 998.7
20260505200005 12 350 6.4 12.9 0.00 0.00 0.00 70 998.7
20260505195805 12 343 6.4 12.9 0.00 0.00 0.00 69 998.8
20260505195605 12 183 6.4 12.9 0.00 0.00 0.00 69 998.7
20260505195405 12 310 6.4 12.9 0.00 0.00 0.00 68 998.7
20260505195205 12 83 6.4 12.9 0.00 0.00 0.00 68 998.7
20260505194605 12 69 6.4 8.0 0.00 0.00 0.00 67 998.4
20260505194405 12 53 6.4 8.0 0.00 0.00 0.00 67 998.5
20260505194205 12 35 6.4 8.0 0.00 0.00 0.00 67 998.5
20260505194005 12 31 4.8 8.0 0.00 0.00 0.00 66 998.4
20260505193805 12 35 4.8 8.0 0.00 0.00 0.00 65 998.4
20260505193605 13 38 3.2 8.0 0.00 0.00 0.00 65 998.5
20260505193205 13 73 1.6 4.8 0.00 0.00 0.00 65 998.4
20260505192805 13 74 0.0 3.2 0.00 0.00 0.00 64 998.4
20260505192605 13 316 1.6 3.2 0.00 0.00 0.00 64 998.3
20260505192405 13 331 1.6 3.2 0.00 0.00 0.00 64 998.2
20260505192205 13 331 1.6 3.2 0.00 0.00 0.00 64 998.1
20260505192005 13 313 1.6 3.2 0.00 0.00 0.00 64 998.3
20260505191804 13 342 1.6 4.8 0.00 0.00 0.00 64 998.0
20260505191605 13 17 1.6 4.8 0.00 0.00 0.00 64 998.0
20260505191405 13 25 1.6 4.8 0.00 0.00 0.00 63 998.1
20260505191205 13 25 1.6 4.8 0.00 0.00 0.00 63 998.0
20260505190805 13 81 1.6 3.2 0.00 0.00 0.00 63 998.1
20260505190605 13 74 1.6 3.2 0.00 0.00 0.00 63 998.0
20260505190205 13 69 1.6 3.2 0.00 0.00 0.00 63 997.9
20260505190005 13 84 1.6 3.2 0.00 0.00 0.00 63 998.0
20260505185805 13 77 0.0 3.2 0.00 0.00 0.00 63 997.9
20260505185405 13 97 0.0 3.2 0.00 0.00 0.00 63 997.9
20260505185005 13 55 0.0 3.2 0.00 0.00 0.00 63 997.8
20260505184805 13 48 0.0 3.2 0.00 0.00 0.00 63 997.9
20260505184605 13 48 0.0 3.2 0.00 0.00 0.00 63 997.9
20260505184205 13 338 0.0 3.2 0.00 0.00 0.00 63 997.7
20260505183805 13 314 0.0 3.2 0.00 0.00 0.00 62 997.7
20260505183605 13 314 0.0 3.2 0.00 0.00 0.00 62 997.8
20260505183405 13 314 0.0 3.2 0.00 0.00 0.00 62 997.7
20260505183205 13 135 0.0 1.6 0.00 0.00 0.00 62 997.8
20260505183005 13 0 0.0 0.0 0.00 0.00 0.00 62 997.7
20260505182805 13 0 0.0 0.0 0.00 0.00 0.00 61 997.7
20260505182605 13 0 0.0 0.0 0.00 0.00 0.00 61 997.7
20260505182405 13 0 0.0 0.0 0.00 0.00 0.00 61 997.9
20260505182004 13 0 0.0 0.0 0.00 0.00 0.00 61 997.7
20260505181805 13 28 0.0 1.6 0.00 0.00 0.00 61 997.7
20260505181404 13 40 0.0 1.6 0.00 0.00 0.00 60 997.7
20260505181005 13 40 0.0 1.6 0.00 0.00 0.00 60 997.5
20260505180805 13 56 0.0 1.6 0.00 0.00 0.00 60 997.8
20260505180605 13 78 0.0 1.6 0.00 0.00 0.00 60 997.7
20260505180404 13 0 0.0 0.0 0.00 0.00 0.00 60 997.6
20260505180205 13 0 0.0 0.0 0.00 0.00 0.00 60 997.6
20260505180005 13 0 0.0 0.0 0.00 0.00 0.00 60 997.7
20260505175805 13 0 0.0 0.0 0.00 0.00 0.00 60 997.7
20260505175405 13 31 0.0 3.2 0.00 0.00 0.00 60 997.6
20260505175205 13 35 0.0 3.2 0.00 0.00 0.00 60 997.7
20260505175005 13 35 0.0 3.2 0.00 0.00 0.00 60 997.7
20260505174804 14 1 0.0 3.2 0.00 0.00 0.00 59 997.6
20260505174605 14 9 1.6 3.2 0.00 0.00 0.00 59 997.6
20260505174005 14 341 1.6 3.2 0.00 0.00 0.00 58 997.6
20260505173605 14 334 0.0 3.2 0.00 0.00 0.00 58 997.6
20260505173405 14 311 0.0 3.2 0.00 0.00 0.00 58 997.6
20260505173204 14 181 0.0 1.6 0.00 0.00 0.00 58 997.6
20260505173005 14 0 0.0 0.0 0.00 0.00 0.00 58 997.7
20260505172805 14 157 0.0 1.6 0.00 0.00 0.00 58 997.5
20260505172605 14 157 0.0 1.6 0.00 0.00 0.00 58 997.4
20260505172405 14 157 0.0 1.6 0.00 0.00 0.00 58 997.7
20260505172005 14 10 1.6 4.8 0.00 0.00 0.00 57 997.5
20260505171805 14 18 1.6 4.8 0.00 0.00 0.00 57 997.6
20260505171604 15 27 1.6 4.8 0.00 0.00 0.00 56 997.7
20260505171405 15 27 1.6 4.8 0.00 0.00 0.00 56 997.7
20260505171205 15 35 1.6 4.8 0.00 0.00 0.00 56 997.7
20260505171005 15 61 1.6 4.8 0.00 0.00 0.00 56 997.7
20260505170804 15 143 1.6 3.2 0.00 0.00 0.00 56 997.7
20260505170605 15 183 1.6 3.2 0.00 0.00 0.00 57 997.7
20260505170405 15 183 1.6 3.2 0.00 0.00 0.00 57 997.8
20260505170205 15 189 1.6 3.2 0.00 0.00 0.00 56 997.8
20260505170005 15 193 1.6 3.2 0.00 0.00 0.00 55 997.8
20260505165805 15 170 1.6 3.2 0.00 0.00 0.00 55 997.8
20260505165405 15 59 1.6 3.2 0.00 0.00 0.00 55 997.8
20260505165205 15 82 1.6 3.2 0.00 0.00 0.00 55 997.7
20260505165005 15 11 1.6 3.2 0.00 0.00 0.00 55 997.7
20260505164804 15 5 1.6 3.2 0.00 0.00 0.00 54 997.7
20260505164405 16 185 1.6 3.2 0.00 0.00 0.00 54 997.7
20260505164205 16 184 1.6 3.2 0.00 0.00 0.00 54 997.7
20260505164005 16 184 1.6 3.2 0.00 0.00 0.00 53 997.8
20260505163605 16 186 1.6 3.2 0.00 0.00 0.00 54 997.7
20260505163205 16 141 0.0 1.6 0.00 0.00 0.00 54 997.7
20260505163005 16 175 1.6 6.4 0.00 0.00 0.00 54 997.7
20260505162605 16 181 1.6 6.4 0.00 0.00 0.00 54 997.7
20260505162405 16 178 1.6 6.4 0.00 0.00 0.00 54 997.7
20260505162205 16 177 1.6 6.4 0.00 0.00 0.00 53 997.8
20260505161605 16 177 1.6 3.2 0.00 0.00 0.00 53 997.8
20260505161404 16 181 1.6 3.2 0.00 0.00 0.00 53 997.6
20260505161005 16 192 1.6 6.4 0.00 0.00 0.00 54 997.6
20260505160805 16 223 1.6 6.4 0.00 0.00 0.00 54 997.7
20260505160405 16 189 3.2 6.4 0.00 0.00 0.00 53 997.7
20260505160205 16 203 1.6 6.4 0.00 0.00 0.00 53 997.7
20260505153205 17 296 1.6 3.2 0.00 0.00 0.00 48 997.7
20260505153005 17 303 1.6 3.2 0.00 0.00 0.00 47 997.7
20260505152805 17 318 3.2 9.7 0.00 0.00 0.00 46 997.7
20260505152604 17 323 4.8 9.7 0.00 0.00 0.00 48 997.6
20260505152405 17 331 4.8 9.7 0.00 0.00 0.00 47 997.6
20260505152204 17 343 6.4 9.7 0.00 0.00 0.00 42 997.5
20260505152005 17 356 6.4 9.7 0.00 0.00 0.00 41 997.6
20260505151805 17 25 6.4 9.7 0.00 0.00 0.00 41 997.6
20260505151604 17 103 4.8 6.4 0.00 0.00 0.00 42 997.8
20260505151405 17 117 4.8 6.4 0.00 0.00 0.00 42 997.7
20260505151205 17 128 3.2 6.4 0.00 0.00 0.00 42 997.7
20260505151004 17 140 3.2 6.4 0.00 0.00 0.00 42 997.7
20260505150804 17 131 3.2 4.8 0.00 0.00 0.00 43 997.7
20260505150605 17 117 3.2 4.8 0.00 0.00 0.00 42 997.7
20260505150405 17 132 3.2 4.8 0.00 0.00 0.00 42 997.7
20260505150205 17 108 4.8 6.4 0.00 0.00 0.00 42 997.6
20260505140605 17 336 6.4 8.0 0.00 0.00 0.00 41 998.0
20260505140404 18 345 4.8 8.0 0.00 0.00 0.00 42 997.8
20260505140204 18 340 3.2 8.0 0.00 0.00 0.00 41 998.0
20260505130205 18 61 4.8 6.4 0.00 0.00 0.00 43 998.4
20260505124804 18 353 4.8 11.3 0.00 0.00 0.00 43 998.4
20260505124605 18 355 4.8 11.3 0.00 0.00 0.00 42 998.3
20260505124405 18 7 4.8 11.3 0.00 0.00 0.00 41 998.3
20260505124205 18 10 4.8 11.3 0.00 0.00 0.00 41 998.4
20260505124004 18 5 4.8 8.0 0.00 0.00 0.00 42 998.3
20260505123804 18 76 3.2 8.0 0.00 0.00 0.00 42 998.4
20260505123605 18 12 3.2 6.4 0.00 0.00 0.00 43 998.3
20260505123404 18 359 3.2 6.4 0.00 0.00 0.00 42 998.4
20260505123205 18 351 3.2 6.4 0.00 0.00 0.00 43 998.4
20260505123005 18 17 1.6 4.8 0.00 0.00 0.00 44 998.4
20260505122804 18 342 3.2 11.3 0.00 0.00 0.00 44 998.4
20260505122604 18 349 4.8 11.3 0.00 0.00 0.00 44 998.4
20260505122405 18 343 6.4 11.3 0.00 0.00 0.00 43 998.4
20260505122205 18 338 6.4 11.3 0.00 0.00 0.00 41 998.3
20260505122004 18 341 6.4 11.3 0.00 0.00 0.00 41 998.4
20260505121804 18 336 4.8 9.7 0.00 0.00 0.00 41 998.3
20260505121605 18 214 4.8 8.0 0.00 0.00 0.00 43 998.4
20260505121205 17 79 4.8 8.0 0.00 0.00 0.00 44 998.2
20260505121004 17 75 4.8 8.0 0.00 0.00 0.00 43 998.4
20260505120804 17 68 4.8 8.0 0.00 0.00 0.00 42 998.3
20260505120605 17 11 4.8 9.7 0.00 0.00 0.00 42 998.5
20260505120204 17 355 6.4 12.9 0.00 0.00 0.00 42 998.4
20260505120005 17 348 8.0 12.9 0.00 0.00 0.00 41 998.3
20260505115805 17 344 9.7 12.9 0.00 0.00 0.00 40 998.4
20260505115604 17 346 8.0 12.9 0.00 0.00 0.00 40 998.4
20260505115404 17 337 8.0 12.9 0.00 0.00 0.00 40 998.3
20260505115204 17 334 8.0 12.9 0.00 0.00 0.00 41 998.3
20260505115005 17 342 6.4 12.9 0.00 0.00 0.00 41 998.5
20260505114805 17 353 6.4 12.9 0.00 0.00 0.00 42 998.4
20260505114604 17 336 6.4 12.9 0.00 0.00 0.00 41 998.5
20260505114404 17 350 6.4 8.0 0.00 0.00 0.00 42 998.5
20260505114205 17 355 4.8 8.0 0.00 0.00 0.00 41 998.5
20260505114005 17 9 4.8 12.9 0.00 0.00 0.00 40 998.5
20260505113804 18 23 4.8 12.9 0.00 0.00 0.00 40 998.5
20260505113604 18 54 4.8 12.9 0.00 0.00 0.00 41 998.5
20260505113205 18 76 4.8 12.9 0.00 0.00 0.00 41 998.5
20260505112804 18 66 3.2 4.8 0.00 0.00 0.00 43 998.6
20260505112604 18 100 4.8 6.4 0.00 0.00 0.00 42 998.6
20260505112405 18 106 4.8 6.4 0.00 0.00 0.00 42 998.6
20260505112205 18 86 4.8 6.4 0.00 0.00 0.00 44 998.5
20260505111804 17 94 6.4 6.4 0.00 0.00 0.00 44 998.8
20260505111604 17 105 6.4 6.4 0.00 0.00 0.00 44 998.7
20260505111405 17 76 6.4 17.7 0.00 0.00 0.00 49 998.7
20260505111205 17 21 9.7 17.7 0.00 0.00 0.00 48 998.7
20260505111004 17 9 9.7 17.7 0.00 0.00 0.00 48 998.8
20260505110604 17 15 9.7 17.7 0.00 0.00 0.00 47 998.7
20260505110405 17 13 8.0 17.7 0.00 0.00 0.00 46 998.8
20260505110205 17 93 6.4 14.5 0.00 0.00 0.00 46 998.8
20260505102205 15 343 9.7 14.5 0.00 0.00 0.00 59 998.8
20260505101804 15 338 8.0 14.5 0.00 0.00 0.00 60 998.9
20260505101604 15 341 8.0 11.3 0.00 0.00 0.00 60 999.0
20260505101405 15 339 9.7 14.5 0.00 0.00 0.00 60 998.9
20260505101204 15 336 9.7 14.5 0.00 0.00 0.00 60 998.9
20260505101004 15 337 11.3 14.5 0.00 0.00 0.00 61 998.9
20260505100605 15 329 12.9 17.7 0.00 0.00 0.00 60 999.0
20260505100404 15 333 12.9 17.7 0.00 0.00 0.00 60 999.1
20260505095804 15 337 11.3 17.7 0.00 0.00 0.00 59 999.0
20260505095605 15 348 9.7 17.7 0.00 0.00 0.00 60 999.1
20260505095405 15 339 8.0 12.9 0.00 0.00 0.00 60 999.0
20260505095004 15 326 9.7 12.9 0.00 0.00 0.00 60 999.0